createdAt,value
2017-11-20T00:01:31.018Z,30.37
2017-11-20T00:03:58.511Z,18.90
2017-11-20T00:06:26.812Z,16.73
2017-11-20T00:08:55.083Z,28.13
2017-11-20T00:11:23.395Z,18.50
2017-11-20T00:13:50.886Z,34.63
2017-11-20T00:16:18.434Z,26.93
2017-11-20T00:18:45.935Z,27.40
2017-11-20T00:21:13.435Z,22.67
2017-11-20T00:23:41.025Z,24.63
2017-11-20T00:26:09.370Z,25.17
2017-11-20T00:28:36.895Z,18.63
2017-11-20T00:31:05.159Z,26.93
2017-11-20T00:33:32.693Z,28.70
2017-11-20T00:36:00.230Z,15.90
2017-11-20T00:38:27.762Z,15.43
2017-11-20T00:40:56.050Z,22.83
2017-11-20T00:43:23.589Z,19.50
2017-11-20T00:45:51.092Z,21.47
2017-11-20T00:48:18.582Z,19.90
2017-11-20T00:50:46.179Z,24.47
2017-11-20T00:53:14.458Z,17.57
2017-11-20T00:55:41.983Z,27.93
2017-11-20T00:58:09.482Z,22.43
2017-11-20T01:00:37.025Z,22.20
2017-11-20T01:03:04.546Z,10.43
2017-11-20T01:05:32.091Z,26.80
2017-11-20T01:07:59.586Z,16.30
2017-11-20T01:10:27.134Z,19.43
2017-11-20T01:12:54.634Z,10.83
2017-11-20T01:15:22.903Z,27.13
2017-11-20T01:17:50.436Z,16.60
2017-11-20T01:20:17.934Z,32.30
2017-11-20T01:22:45.458Z,14.60
2017-11-20T01:25:12.967Z,15.30
2017-11-20T01:27:40.494Z,28.30
2017-11-20T01:30:08.004Z,20.57
2017-11-20T01:32:35.552Z,14.40
2017-11-20T01:35:03.071Z,19.80
2017-11-20T01:37:30.612Z,11.43
2017-11-20T01:39:58.098Z,11.47
2017-11-20T01:42:25.655Z,12.80
2017-11-20T01:44:53.150Z,18.30
2017-11-20T01:47:20.650Z,6.90
2017-11-20T01:49:48.179Z,9.97
2017-11-20T01:52:15.683Z,15.53
2017-11-20T01:54:43.238Z,13.70
2017-11-20T01:57:10.730Z,11.93
2017-11-20T01:59:38.261Z,19.70
2017-11-20T02:02:05.778Z,14.17
2017-11-20T02:04:33.565Z,30.23
2017-11-20T02:07:01.836Z,13.47
2017-11-20T02:09:29.333Z,12.20
2017-11-20T02:11:56.891Z,11.30
2017-11-20T02:14:25.335Z,14.67
2017-11-20T02:16:52.876Z,12.93
2017-11-20T02:19:20.468Z,11.43
2017-11-20T02:24:38.686Z,16.37
2017-11-20T02:27:06.214Z,10.27
2017-11-20T02:29:33.707Z,12.90
2017-11-20T02:32:01.232Z,13.90
2017-11-20T02:34:28.734Z,15.30
2017-11-20T02:36:56.274Z,17.43
2017-11-20T02:39:23.773Z,23.20
2017-11-20T02:41:51.306Z,10.10
2017-11-20T02:44:18.844Z,17.60
2017-11-20T02:46:46.349Z,15.43
2017-11-20T02:49:13.883Z,16.27
2017-11-20T02:51:41.392Z,13.70
2017-11-20T02:54:08.936Z,22.50
2017-11-20T02:56:36.447Z,30.67
2017-11-20T02:59:03.994Z,8.07
2017-11-20T03:01:31.525Z,10.50
2017-11-20T03:03:59.092Z,14.87
2017-11-20T03:06:26.614Z,13.93
2017-11-20T03:08:54.137Z,19.60
2017-11-20T03:11:21.681Z,17.10
2017-11-20T03:13:49.181Z,20.43
2017-11-20T03:16:16.723Z,16.83
2017-11-20T03:18:44.225Z,13.83
2017-11-20T03:21:11.758Z,15.53
2017-11-20T03:23:39.255Z,16.00
2017-11-20T03:26:06.795Z,16.00
2017-11-20T03:28:34.313Z,20.17
2017-11-20T03:31:01.860Z,17.47
2017-11-20T03:33:30.133Z,19.90
2017-11-20T03:35:57.742Z,20.63
2017-11-20T03:38:25.276Z,17.97
2017-11-20T03:40:53.579Z,15.90
2017-11-20T03:43:21.883Z,10.20
2017-11-20T03:45:50.139Z,13.13
2017-11-20T03:48:17.677Z,20.80
2017-11-20T03:50:45.202Z,16.67
2017-11-20T03:53:12.736Z,18.07
2017-11-20T03:55:40.231Z,16.50
2017-11-20T03:58:07.765Z,13.57
2017-11-20T04:00:35.263Z,8.10
2017-11-20T04:03:02.808Z,10.83
2017-11-20T04:05:30.305Z,14.13
2017-11-20T04:07:57.791Z,8.50
2017-11-20T04:10:25.383Z,12.80
2017-11-20T04:12:53.638Z,20.67
2017-11-20T04:15:21.167Z,19.73
2017-11-20T04:17:48.663Z,10.30
2017-11-20T04:20:16.184Z,6.80
2017-11-20T04:22:44.438Z,8.70
2017-11-20T04:25:11.981Z,10.00
2017-11-20T04:27:39.479Z,15.93
2017-11-20T04:30:07.033Z,11.70
2017-11-20T04:32:34.521Z,28.03
2017-11-20T04:35:02.035Z,11.93
2017-11-20T04:37:30.331Z,12.07
2017-11-20T04:39:58.595Z,11.47
2017-11-20T04:42:27.667Z,11.30
2017-11-20T04:44:55.169Z,17.63
2017-11-20T04:47:22.720Z,15.53
2017-11-20T04:49:50.227Z,19.17
2017-11-20T04:52:18.526Z,13.30
2017-11-20T04:54:46.788Z,10.33
2017-11-20T04:57:14.410Z,15.27
2017-11-20T04:59:41.899Z,13.73
2017-11-20T05:02:09.434Z,13.20
2017-11-20T05:04:36.944Z,8.97
2017-11-20T05:07:04.496Z,22.03
2017-11-20T05:09:31.999Z,10.50
2017-11-20T05:11:59.535Z,14.97
2017-11-20T05:14:27.026Z,15.07
2017-11-20T05:16:55.350Z,11.90
2017-11-20T05:19:22.884Z,6.93
2017-11-20T05:21:50.390Z,20.33
2017-11-20T05:24:17.930Z,15.90
2017-11-20T05:26:45.423Z,13.67
2017-11-20T05:29:12.975Z,12.80
2017-11-20T05:31:40.508Z,17.83
2017-11-20T05:34:08.803Z,20.47
2017-11-20T05:36:36.311Z,10.67
2017-11-20T05:39:03.847Z,14.60
2017-11-20T05:41:31.352Z,9.57
2017-11-20T05:43:59.171Z,10.10
2017-11-20T05:46:26.923Z,26.63
2017-11-20T05:48:54.451Z,17.30
2017-11-20T05:51:22.021Z,17.63
2017-11-20T05:53:49.573Z,14.10
2017-11-20T05:56:17.896Z,25.50
2017-11-20T05:58:45.398Z,21.27
2017-11-20T06:01:13.108Z,42.37
2017-11-20T06:03:40.736Z,24.93
2017-11-20T06:06:08.364Z,30.97
2017-11-20T06:08:36.667Z,32.83
2017-11-20T06:11:04.974Z,27.30
2017-11-20T06:13:32.490Z,26.83
2017-11-20T06:16:00.047Z,24.33
2017-11-20T06:18:27.625Z,21.87
2017-11-20T06:20:55.155Z,15.53
2017-11-20T06:23:22.713Z,20.67
2017-11-20T06:25:50.232Z,15.37
2017-11-20T06:28:17.781Z,21.07
2017-11-20T06:30:45.286Z,20.60
2017-11-20T06:33:12.836Z,14.10
2017-11-20T06:35:40.361Z,16.67
2017-11-20T06:38:07.899Z,15.40
2017-11-20T06:40:35.444Z,17.07
2017-11-20T06:43:02.970Z,29.30
2017-11-20T06:45:30.654Z,18.27
2017-11-20T06:47:58.247Z,21.53
2017-11-20T06:50:25.795Z,27.23
2017-11-20T06:52:54.092Z,24.97
2017-11-20T06:55:22.411Z,17.27
2017-11-20T06:57:49.906Z,23.00
2017-11-20T07:00:17.402Z,13.77
2017-11-20T07:02:44.931Z,15.30
2017-11-20T07:05:12.443Z,14.73
2017-11-20T07:07:40.063Z,18.93
2017-11-20T07:10:07.571Z,17.23
2017-11-20T07:12:35.197Z,11.67
2017-11-20T07:15:02.731Z,17.07
2017-11-20T07:17:30.358Z,12.10
2017-11-20T07:19:57.890Z,12.50
2017-11-20T07:22:25.393Z,11.10
2017-11-20T07:24:52.928Z,10.73
2017-11-20T07:27:32.342Z,9.07
2017-11-20T07:30:11.873Z,14.43
2017-11-20T07:32:39.384Z,13.00
2017-11-20T07:35:16.310Z,12.93
2017-11-20T07:37:55.730Z,10.50
2017-11-20T07:40:23.269Z,15.60
2017-11-20T07:42:50.776Z,11.50
2017-11-20T07:45:18.307Z,11.73
2017-11-20T07:47:45.797Z,16.07
2017-11-20T07:50:13.330Z,18.33
2017-11-20T07:52:41.593Z,10.20
2017-11-20T07:55:09.126Z,18.27
2017-11-20T07:57:36.623Z,12.97
2017-11-20T08:00:04.152Z,8.00
2017-11-20T08:02:31.661Z,15.70
2017-11-20T08:04:59.209Z,10.07
2017-11-20T08:07:26.718Z,7.83
2017-11-20T08:09:54.214Z,12.07
2017-11-20T08:12:22.510Z,5.80
2017-11-20T08:14:50.769Z,4.93
2017-11-20T08:17:18.277Z,10.47
2017-11-20T08:19:46.590Z,6.23
2017-11-20T08:22:14.093Z,4.27
2017-11-20T08:24:41.647Z,1.97
2017-11-20T08:27:09.183Z,5.67
2017-11-20T08:29:37.477Z,6.57
2017-11-20T08:32:05.752Z,5.10
2017-11-20T08:34:34.063Z,5.10
2017-11-20T08:37:01.560Z,3.27
2017-11-20T08:39:29.056Z,3.63
2017-11-20T08:41:56.586Z,4.50
2017-11-20T08:44:24.086Z,6.73
2017-11-20T08:46:51.618Z,4.70
2017-11-20T08:49:19.102Z,8.57
2017-11-20T08:51:46.642Z,2.70
2017-11-20T08:54:14.897Z,10.53
2017-11-20T08:56:42.430Z,3.90
2017-11-20T08:59:09.935Z,5.63
2017-11-20T09:01:37.497Z,6.40
2017-11-20T09:04:05.028Z,6.57
2017-11-20T09:06:33.294Z,2.10
2017-11-20T09:09:00.854Z,4.80
2017-11-20T09:11:28.605Z,7.40
2017-11-20T09:13:56.205Z,3.03
2017-11-20T09:16:23.714Z,5.53
2017-11-20T09:18:52.012Z,2.77
2017-11-20T09:21:19.500Z,7.63
2017-11-20T09:23:47.047Z,2.20
2017-11-20T09:26:15.311Z,9.50
2017-11-20T09:28:42.810Z,2.20
2017-11-20T09:31:11.118Z,5.17
2017-11-20T09:33:38.611Z,2.70
2017-11-20T09:36:06.138Z,3.37
2017-11-20T09:38:34.402Z,2.03
2017-11-20T09:41:01.927Z,1.57
2017-11-20T09:43:29.415Z,6.77
2017-11-20T09:45:56.952Z,2.50
2017-11-20T09:48:24.455Z,4.20
2017-11-20T09:50:51.980Z,1.33
2017-11-20T09:53:20.234Z,1.90
2017-11-20T09:55:47.810Z,7.50
2017-11-20T09:58:15.306Z,6.20
2017-11-20T10:00:42.867Z,6.67
2017-11-20T10:03:10.386Z,1.40
2017-11-20T10:05:37.882Z,3.43
2017-11-20T10:08:05.411Z,2.97
2017-11-20T10:10:32.906Z,5.60
2017-11-20T10:13:00.462Z,2.97
2017-11-20T10:15:28.912Z,2.53
2017-11-20T10:17:56.451Z,2.00
2017-11-20T10:20:23.943Z,3.90
2017-11-20T10:22:51.469Z,2.77
2017-11-20T10:25:18.994Z,4.43
2017-11-20T10:27:46.542Z,11.93
2017-11-20T10:30:14.059Z,7.77
2017-11-20T10:32:42.403Z,2.73
2017-11-20T10:35:10.612Z,6.10
2017-11-20T10:37:38.179Z,10.43
2017-11-20T10:40:05.681Z,6.13
2017-11-20T10:42:33.962Z,5.20
2017-11-20T10:45:01.552Z,5.07
2017-11-20T10:47:29.852Z,7.80
2017-11-20T10:49:58.134Z,6.50
2017-11-20T10:52:26.394Z,7.20
2017-11-20T10:54:53.951Z,15.37
2017-11-20T10:57:21.454Z,9.10
2017-11-20T10:59:49.737Z,9.97
2017-11-20T11:02:17.272Z,9.20
2017-11-20T11:04:44.774Z,6.40
2017-11-20T11:07:12.298Z,10.07
2017-11-20T11:09:39.798Z,11.73
2017-11-20T11:12:07.334Z,5.83
2017-11-20T11:14:34.838Z,12.17
2017-11-20T11:17:02.383Z,10.40
2017-11-20T11:19:29.888Z,11.17
2017-11-20T11:21:57.434Z,11.13
2017-11-20T11:24:24.930Z,9.40
2017-11-20T11:26:52.435Z,11.23
2017-11-20T11:29:19.960Z,8.50
2017-11-20T11:31:47.453Z,8.63
2017-11-20T11:34:14.996Z,9.90
2017-11-20T11:36:42.491Z,10.63
2017-11-20T11:39:10.014Z,8.20
2017-11-20T11:41:37.511Z,9.03
2017-11-20T11:44:05.049Z,14.33
2017-11-20T11:46:32.616Z,11.73
2017-11-20T11:49:00.911Z,6.60
2017-11-20T11:51:28.429Z,8.07
2017-11-20T11:53:55.974Z,8.33
2017-11-20T11:56:23.480Z,6.40
2017-11-20T11:58:51.063Z,7.80
2017-11-20T12:01:18.572Z,9.80
2017-11-20T12:03:46.078Z,9.93
2017-11-20T12:06:13.611Z,6.90
2017-11-20T12:08:41.890Z,10.37
2017-11-20T12:11:10.206Z,13.50
2017-11-20T12:13:37.755Z,14.37
2017-11-20T12:16:06.060Z,10.77
2017-11-20T12:18:33.555Z,12.60
2017-11-20T12:21:01.080Z,8.73
2017-11-20T12:23:28.574Z,18.47
2017-11-20T12:25:56.138Z,17.17
2017-11-20T12:28:23.636Z,12.93
2017-11-20T12:30:51.142Z,12.03
2017-11-20T12:33:18.704Z,14.37
2017-11-20T12:35:46.223Z,12.30
2017-11-20T12:38:13.800Z,9.87
2017-11-20T12:40:41.311Z,12.03
2017-11-20T12:43:08.861Z,13.00
2017-11-20T12:45:36.370Z,15.27
2017-11-20T12:48:03.869Z,22.40
2017-11-20T12:50:32.171Z,10.47
2017-11-20T12:53:00.499Z,14.97
2017-11-20T12:55:28.065Z,18.13
2017-11-20T12:57:55.599Z,18.40
2017-11-20T13:00:23.899Z,24.17
2017-11-20T13:02:52.168Z,17.77
2017-11-20T13:05:19.712Z,18.47
2017-11-20T13:07:47.249Z,22.83
2017-11-20T13:10:14.774Z,25.57
2017-11-20T13:12:42.270Z,20.17
2017-11-20T13:15:10.597Z,22.53
2017-11-20T13:17:38.096Z,21.30
2017-11-20T13:20:05.586Z,31.17
2017-11-20T13:22:33.128Z,22.17
2017-11-20T13:25:00.626Z,18.33
2017-11-20T13:27:28.206Z,20.67
2017-11-20T13:29:55.708Z,22.03
2017-11-20T13:32:23.240Z,21.07
2017-11-20T13:34:50.734Z,25.30
2017-11-20T13:37:19.052Z,21.53
2017-11-20T13:39:46.558Z,22.63
2017-11-20T13:42:15.386Z,18.30
2017-11-20T13:44:43.686Z,18.53
2017-11-20T13:47:11.949Z,21.50
2017-11-20T13:49:39.491Z,22.30
2017-11-20T13:52:07.006Z,17.90
2017-11-20T13:54:34.573Z,19.90
2017-11-20T13:57:02.131Z,25.90
2017-11-20T13:59:29.684Z,25.13
2017-11-20T14:01:57.185Z,25.97
2017-11-20T14:04:24.733Z,24.57
2017-11-20T14:06:52.242Z,24.43
2017-11-20T14:09:19.750Z,20.23
2017-11-20T14:11:47.306Z,17.80
2017-11-20T14:14:14.819Z,21.50
2017-11-20T14:16:44.207Z,21.23
2017-11-20T14:19:11.746Z,19.90
2017-11-20T14:21:40.058Z,19.17
2017-11-20T14:24:07.570Z,22.30
2017-11-20T14:26:35.854Z,19.30
2017-11-20T14:29:03.718Z,21.00
2017-11-20T14:31:32.271Z,21.27
2017-11-20T14:33:59.763Z,15.00
2017-11-20T14:36:27.318Z,20.97
2017-11-20T14:38:54.813Z,18.90
2017-11-20T14:41:22.315Z,17.70
2017-11-20T14:43:49.874Z,21.33
2017-11-20T14:46:17.380Z,16.63
2017-11-20T14:48:44.937Z,14.63
2017-11-20T14:51:17.018Z,16.37
2017-11-20T14:53:44.555Z,16.47
2017-11-20T14:56:12.058Z,21.00
2017-11-20T14:58:39.600Z,13.67
2017-11-20T15:01:07.125Z,17.70
2017-11-20T15:03:35.453Z,12.13
2017-11-20T15:06:02.982Z,11.23
2017-11-20T15:08:30.571Z,15.20
2017-11-20T15:10:58.090Z,12.47
2017-11-20T15:13:25.628Z,12.97
2017-11-20T15:15:53.178Z,11.53
2017-11-20T15:18:22.101Z,13.13
2017-11-20T15:20:50.460Z,12.53
2017-11-20T15:23:17.962Z,8.33
2017-11-20T15:25:46.272Z,8.20
2017-11-20T15:28:13.784Z,9.73
2017-11-20T15:30:41.360Z,10.00
2017-11-20T15:33:08.870Z,10.17
2017-11-20T15:35:37.135Z,9.20
2017-11-20T15:38:04.675Z,7.57
2017-11-20T15:40:35.729Z,9.13
2017-11-20T15:43:11.046Z,9.23
2017-11-20T15:45:39.340Z,7.50
2017-11-20T15:48:06.893Z,8.00
2017-11-20T15:50:34.468Z,10.70
2017-11-20T15:53:02.892Z,7.63
2017-11-20T15:55:30.392Z,6.30
2017-11-20T15:57:57.886Z,6.97
2017-11-20T16:00:25.431Z,8.37
2017-11-20T16:02:52.925Z,6.63
2017-11-20T16:05:20.491Z,6.60
2017-11-20T16:07:47.998Z,6.60
2017-11-20T16:10:16.314Z,6.70
2017-11-20T16:12:43.818Z,8.10
2017-11-20T16:15:11.321Z,5.67
2017-11-20T16:17:39.618Z,9.63
2017-11-20T16:20:07.882Z,6.97
2017-11-20T16:22:35.418Z,6.43
2017-11-20T16:25:02.910Z,4.77
2017-11-20T16:27:30.475Z,5.27
2017-11-20T16:29:57.971Z,4.80
2017-11-20T16:32:25.536Z,5.33
2017-11-20T16:34:53.057Z,4.60
2017-11-20T16:37:20.714Z,4.20
2017-11-20T16:39:49.064Z,4.57
2017-11-20T16:42:16.564Z,8.03
2017-11-20T16:44:44.897Z,3.97
2017-11-20T16:47:12.418Z,4.30
2017-11-20T16:49:39.978Z,6.83
2017-11-20T16:52:07.578Z,4.10
2017-11-20T16:54:36.024Z,5.03
2017-11-20T16:57:15.376Z,5.40
2017-11-20T16:59:42.967Z,7.33
2017-11-20T17:02:32.948Z,5.43
2017-11-20T17:05:00.498Z,8.10
2017-11-20T17:07:28.005Z,12.70
2017-11-20T17:09:55.568Z,4.77
2017-11-20T17:12:23.119Z,5.13
2017-11-20T17:14:50.626Z,6.07
2017-11-20T17:17:18.404Z,5.60
2017-11-20T17:19:45.915Z,3.70
2017-11-20T17:22:14.256Z,4.50
2017-11-20T17:24:41.762Z,6.03
2017-11-20T17:27:10.036Z,3.13
2017-11-20T17:29:37.587Z,4.37
2017-11-20T17:32:05.107Z,10.70
2017-11-20T17:34:33.447Z,15.00
2017-11-20T17:37:00.959Z,17.60
2017-11-20T17:39:29.266Z,6.50
2017-11-20T17:41:57.566Z,4.97
2017-11-20T17:44:25.098Z,3.30
2017-11-20T17:46:52.597Z,2.50
2017-11-20T17:49:20.157Z,2.90
2017-11-20T17:51:47.693Z,2.37
2017-11-20T17:54:15.207Z,1.90
2017-11-20T17:56:43.530Z,3.00
2017-11-20T17:59:11.029Z,5.67
2017-11-20T18:01:38.620Z,2.97
2017-11-20T18:04:06.127Z,2.73
2017-11-20T18:06:33.691Z,2.37
2017-11-20T18:09:01.964Z,2.73
2017-11-20T18:11:30.445Z,2.83
2017-11-20T18:13:58.039Z,3.00
2017-11-20T18:16:26.303Z,3.57
2017-11-20T18:18:53.870Z,3.23
2017-11-20T18:21:21.370Z,2.30
2017-11-20T18:23:48.933Z,2.43
2017-11-20T18:26:16.432Z,3.20
2017-11-20T18:28:44.745Z,3.17
2017-11-20T18:31:12.246Z,2.70
2017-11-20T18:33:39.822Z,5.40
2017-11-20T18:36:07.328Z,5.83
2017-11-20T18:38:35.640Z,3.50
2017-11-20T18:41:03.141Z,4.43
2017-11-20T18:43:30.697Z,5.22
2017-11-20T18:45:58.234Z,9.47
2017-11-20T18:48:26.526Z,6.97
2017-11-20T18:50:54.835Z,7.80
2017-11-20T18:53:22.343Z,6.47
2017-11-20T18:55:49.879Z,4.60
2017-11-20T18:58:17.439Z,3.40
2017-11-20T19:00:57.518Z,3.77
2017-11-20T19:03:27.691Z,3.57
2017-11-20T19:06:07.212Z,2.57
2017-11-20T19:08:40.541Z,2.90
2017-11-20T19:11:08.097Z,3.90
2017-11-20T19:13:35.685Z,2.70
2017-11-20T19:16:03.179Z,4.07
2017-11-20T19:18:30.770Z,3.93
2017-11-20T19:20:58.276Z,3.93
2017-11-20T19:23:25.851Z,4.40
2017-11-20T19:25:53.364Z,3.57
2017-11-20T19:28:20.942Z,4.73
2017-11-20T19:30:48.431Z,3.40
2017-11-20T19:33:15.991Z,5.03
2017-11-20T19:35:43.492Z,4.67
2017-11-20T19:38:11.826Z,6.27
2017-11-20T19:40:39.364Z,5.00
2017-11-20T19:43:06.941Z,6.03
2017-11-20T19:45:34.466Z,5.07
2017-11-20T19:48:01.966Z,5.07
2017-11-20T19:50:29.527Z,7.23
2017-11-20T19:52:57.127Z,5.83
2017-11-20T19:55:24.671Z,7.00
2017-11-20T19:57:52.985Z,8.63
2017-11-20T20:00:21.330Z,6.90
2017-11-20T20:02:48.840Z,7.17
2017-11-20T20:05:17.183Z,7.10
2017-11-20T20:07:44.695Z,8.17
2017-11-20T20:10:12.980Z,8.70
2017-11-20T20:12:41.338Z,6.87
2017-11-20T20:15:20.667Z,5.83
2017-11-20T20:17:48.268Z,5.67
2017-11-20T20:20:15.838Z,6.40
2017-11-20T20:22:53.319Z,3.77
2017-11-20T20:25:20.859Z,3.67
2017-11-20T20:27:48.462Z,2.50
2017-11-20T20:30:15.967Z,2.70
2017-11-20T20:32:43.536Z,2.47
2017-11-20T20:35:11.083Z,1.90
2017-11-20T20:37:38.591Z,2.67
2017-11-20T20:40:06.165Z,4.40
2017-11-20T20:42:33.787Z,1.80
2017-11-20T20:45:01.323Z,2.00
2017-11-20T20:47:28.835Z,1.50
2017-11-20T20:49:56.456Z,1.93
2017-11-20T20:52:23.979Z,1.70
2017-11-20T20:54:51.519Z,1.67
2017-11-20T20:57:19.018Z,2.30
2017-11-20T20:59:46.592Z,1.10
2017-11-20T21:02:14.196Z,2.30
2017-11-20T21:04:41.689Z,3.33
2017-11-20T21:07:09.249Z,1.53
2017-11-20T21:09:57.494Z,2.17
2017-11-20T21:12:25.037Z,1.57
2017-11-20T21:14:52.554Z,1.40
2017-11-20T21:17:20.112Z,1.40
2017-11-20T21:19:47.643Z,3.83
2017-11-20T21:22:15.206Z,1.10
2017-11-20T21:24:43.473Z,2.60
2017-11-20T21:27:11.020Z,1.30
2017-11-20T21:29:38.533Z,2.70
2017-11-20T21:32:06.860Z,4.10
2017-11-20T21:34:34.359Z,1.20
2017-11-20T21:37:01.903Z,1.03
2017-11-20T21:39:29.447Z,4.10
2017-11-20T21:41:57.748Z,3.63
2017-11-20T21:44:25.347Z,2.90
2017-11-20T21:46:52.887Z,1.70
2017-11-20T21:49:20.494Z,1.20
2017-11-20T21:51:48.013Z,1.07
2017-11-20T21:54:16.301Z,6.10
2017-11-20T21:56:44.627Z,1.07
2017-11-20T21:59:12.130Z,1.10
2017-11-20T22:01:39.671Z,1.33
2017-11-20T22:04:07.167Z,2.10
2017-11-20T22:06:34.702Z,1.43
2017-11-20T22:09:02.200Z,2.40
2017-11-20T22:11:29.752Z,2.60
2017-11-20T22:13:57.302Z,1.93
2017-11-20T22:16:24.808Z,1.90
2017-11-20T22:18:52.343Z,1.90
2017-11-20T22:21:20.603Z,2.37
2017-11-20T22:23:48.146Z,5.73
2017-11-20T22:26:15.669Z,5.80
2017-11-20T22:28:43.215Z,4.13
2017-11-20T22:31:10.720Z,2.30
2017-11-20T22:33:38.231Z,2.60
2017-11-20T22:36:05.764Z,2.10
2017-11-20T22:38:34.023Z,2.60
2017-11-20T22:41:01.555Z,2.57
2017-11-20T22:43:29.067Z,2.20
2017-11-20T22:45:56.644Z,2.60
2017-11-20T22:48:24.162Z,2.83
2017-11-20T22:50:51.671Z,2.90
2017-11-20T22:53:19.208Z,2.63
2017-11-20T22:55:46.717Z,2.40
2017-11-20T22:58:14.248Z,3.90
2017-11-20T23:00:41.790Z,2.50
2017-11-20T23:03:09.319Z,2.70
2017-11-20T23:05:36.823Z,2.73
2017-11-20T23:08:04.360Z,2.53
2017-11-20T23:10:31.852Z,2.50
2017-11-20T23:12:59.380Z,3.73
2017-11-20T23:15:26.870Z,2.60
2017-11-20T23:17:54.410Z,3.80
2017-11-20T23:20:22.675Z,2.57
2017-11-20T23:22:50.167Z,2.73
2017-11-20T23:25:17.694Z,2.73
2017-11-20T23:27:45.195Z,2.50
2017-11-20T23:30:13.550Z,2.50
2017-11-20T23:32:41.055Z,2.60
2017-11-20T23:35:08.613Z,2.20
2017-11-20T23:37:36.118Z,2.87
2017-11-20T23:40:03.672Z,2.53
2017-11-20T23:42:31.175Z,2.23
2017-11-20T23:44:58.673Z,2.50
2017-11-20T23:47:26.211Z,2.00
2017-11-20T23:49:53.720Z,3.83
2017-11-20T23:52:21.254Z,2.30
2017-11-20T23:54:48.742Z,2.20
2017-11-20T23:57:16.295Z,2.33
2017-11-20T23:59:43.791Z,2.30
